sim
Sign-in with your pilot id or email,
or register
Callsign
Passwort

Schedule Details

Flight Number: DLH122
Departure: Frankfurt Airport (EDDF) at 20:15
Arrival: Munich Airport (EDDM) at 21:10
Route: Lufthansa Passenger Schedule. Enter filed route here before submitting Pirep.

Weather Information
Getting current METAR information for EDDF 210550Z 08006KT CAVOK 11/06 Q1016 NOSIG
Getting current METAR information for EDDM 210550Z VRB01KT 9999 1500SE BCFG NSC 07/07 Q1017 NOSIG

Schedule Frequency

Route Map